createdAt,value
2023-09-09T00:00:53.260Z,18.40
2023-09-09T00:03:22.906Z,17.96
2023-09-09T00:05:50.832Z,18.15
2023-09-09T00:08:20.215Z,18.72
2023-09-09T00:10:48.506Z,18.15
2023-09-09T00:13:16.326Z,18.24
2023-09-09T00:15:43.897Z,18.26
2023-09-09T00:18:11.222Z,18.33
2023-09-09T00:20:41.947Z,18.03
2023-09-09T00:23:09.654Z,17.78
2023-09-09T00:25:39.425Z,18.15
2023-09-09T00:28:08.498Z,18.24
2023-09-09T00:30:35.760Z,17.83
2023-09-09T00:33:03.984Z,17.83
2023-09-09T00:35:34.338Z,17.42
2023-09-09T00:38:01.944Z,18.12
2023-09-09T00:40:29.345Z,18.26
2023-09-09T00:42:56.566Z,18.14
2023-09-09T00:45:24.797Z,17.71
2023-09-09T00:47:52.463Z,17.45
2023-09-09T00:50:21.124Z,17.77
2023-09-09T00:52:48.428Z,17.90
2023-09-09T00:55:16.201Z,17.38
2023-09-09T00:57:43.496Z,18.18
2023-09-09T01:00:11.682Z,17.93
2023-09-09T01:02:40.578Z,17.63
2023-09-09T01:05:09.186Z,18.18
2023-09-09T01:07:47.619Z,17.60
2023-09-09T01:10:17.474Z,17.94
2023-09-09T01:12:44.922Z,17.67
2023-09-09T01:15:13.453Z,17.57
2023-09-09T01:17:41.318Z,18.14
2023-09-09T01:20:15.777Z,17.47
2023-09-09T01:22:47.349Z,17.67
2023-09-09T01:25:14.595Z,17.42
2023-09-09T01:27:42.929Z,17.47
2023-09-09T01:30:12.599Z,17.91
2023-09-09T01:32:40.364Z,17.85
2023-09-09T01:35:09.061Z,17.61
2023-09-09T01:37:36.386Z,18.23
2023-09-09T01:40:13.570Z,18.02
2023-09-09T01:42:41.928Z,17.49
2023-09-09T01:45:09.438Z,18.43
2023-09-09T01:47:36.666Z,18.22
2023-09-09T01:50:04.384Z,17.91
2023-09-09T01:52:31.658Z,18.59
2023-09-09T01:54:58.952Z,18.05
2023-09-09T01:57:28.005Z,17.78
2023-09-09T01:59:55.668Z,17.83
2023-09-09T02:02:23.568Z,17.39
2023-09-09T02:04:50.865Z,17.67
2023-09-09T02:07:18.131Z,17.47
2023-09-09T02:09:46.827Z,17.35
2023-09-09T02:12:14.086Z,17.09
2023-09-09T02:14:41.784Z,17.20
2023-09-09T02:17:09.494Z,18.04
2023-09-09T02:19:36.965Z,17.39
2023-09-09T02:22:06.179Z,17.11
2023-09-09T02:24:33.392Z,16.93
2023-09-09T02:27:00.633Z,17.18
2023-09-09T02:29:28.170Z,16.85
2023-09-09T02:31:55.428Z,17.27
2023-09-09T02:34:22.626Z,17.08
2023-09-09T02:37:20.372Z,16.94
2023-09-09T02:39:52.615Z,16.75
2023-09-09T02:42:22.824Z,16.63
2023-09-09T02:44:51.072Z,16.68
2023-09-09T02:47:19.261Z,16.72
2023-09-09T02:49:47.671Z,16.48
2023-09-09T02:52:15.011Z,16.37
2023-09-09T02:54:42.365Z,16.12
2023-09-09T02:57:09.646Z,16.25
2023-09-09T02:59:37.926Z,16.26
2023-09-09T03:02:06.094Z,16.27
2023-09-09T03:04:33.415Z,16.20
2023-09-09T03:07:02.016Z,16.20
2023-09-09T03:09:31.083Z,16.16
2023-09-09T03:11:58.506Z,16.46
2023-09-09T03:14:25.955Z,16.25
2023-09-09T03:16:53.484Z,16.04
2023-09-09T03:19:20.850Z,15.75
2023-09-09T03:21:48.574Z,16.09
2023-09-09T03:24:15.924Z,15.98
2023-09-09T03:26:43.363Z,15.94
2023-09-09T03:29:10.584Z,15.84
2023-09-09T03:31:37.796Z,15.95
2023-09-09T03:34:06.915Z,15.68
2023-09-09T03:36:36.472Z,15.83
2023-09-09T03:39:04.470Z,15.77
2023-09-09T03:41:32.228Z,15.59
2023-09-09T03:43:59.795Z,15.30
2023-09-09T03:46:28.025Z,15.93
2023-09-09T03:48:55.389Z,15.67
2023-09-09T03:51:22.944Z,15.52
2023-09-09T03:53:50.240Z,15.56
2023-09-09T03:56:18.628Z,15.66
2023-09-09T03:58:45.824Z,15.62
2023-09-09T04:01:14.157Z,15.78
2023-09-09T04:03:42.728Z,15.26
2023-09-09T04:06:12.778Z,15.98
2023-09-09T04:08:41.199Z,16.15
2023-09-09T04:11:08.643Z,15.53
2023-09-09T04:13:39.751Z,15.83
2023-09-09T04:16:07.507Z,15.42
2023-09-09T04:18:45.767Z,15.14
2023-09-09T04:21:14.318Z,15.11
2023-09-09T04:23:41.839Z,15.03
2023-09-09T04:26:09.343Z,15.41
2023-09-09T04:28:36.615Z,15.01
2023-09-09T04:31:04.847Z,15.14
2023-09-09T04:33:32.136Z,15.15
2023-09-09T04:35:59.567Z,15.17
2023-09-09T04:38:26.858Z,15.21
2023-09-09T04:40:54.094Z,14.87
2023-09-09T04:43:21.934Z,14.85
2023-09-09T04:45:49.341Z,14.93
2023-09-09T04:48:16.769Z,15.22
2023-09-09T04:50:44.113Z,15.37
2023-09-09T04:53:11.312Z,15.18
2023-09-09T04:55:38.582Z,14.87
2023-09-09T04:58:11.313Z,15.37
2023-09-09T05:00:39.263Z,14.82
2023-09-09T05:03:06.698Z,15.33
2023-09-09T05:05:34.065Z,15.44
2023-09-09T05:08:01.624Z,15.53
2023-09-09T05:10:30.967Z,15.15
2023-09-09T05:12:58.298Z,15.98
2023-09-09T05:15:25.556Z,15.91
2023-09-09T05:17:52.770Z,15.88
2023-09-09T05:20:20.451Z,15.49
2023-09-09T05:22:47.850Z,15.22
2023-09-09T05:25:15.157Z,15.26
2023-09-09T05:27:42.796Z,15.13
2023-09-09T05:30:10.133Z,15.27
2023-09-09T05:32:38.152Z,15.45
2023-09-09T05:35:07.195Z,15.11
2023-09-09T05:37:34.517Z,15.32
2023-09-09T05:40:04.082Z,15.29
2023-09-09T05:42:31.993Z,15.48
2023-09-09T05:44:59.299Z,15.34
2023-09-09T05:47:26.567Z,15.78
2023-09-09T05:49:53.881Z,15.60
2023-09-09T05:52:21.080Z,15.61
2023-09-09T05:54:48.377Z,15.64
2023-09-09T05:57:15.694Z,15.68
2023-09-09T05:59:43.208Z,16.13
2023-09-09T06:02:10.549Z,16.50
2023-09-09T06:04:37.950Z,16.44
2023-09-09T06:07:05.782Z,16.64
2023-09-09T06:09:33.021Z,16.74
2023-09-09T06:12:00.464Z,16.84
2023-09-09T06:14:27.847Z,17.12
2023-09-09T06:16:55.059Z,17.17
2023-09-09T06:19:22.330Z,17.27
2023-09-09T06:21:49.840Z,17.37
2023-09-09T06:24:21.419Z,17.18
2023-09-09T06:26:48.722Z,17.21
2023-09-09T06:29:16.174Z,17.82
2023-09-09T06:31:43.905Z,17.89
2023-09-09T06:34:12.391Z,18.09
2023-09-09T06:36:39.596Z,18.23
2023-09-09T06:39:06.894Z,18.31
2023-09-09T06:41:34.223Z,18.46
2023-09-09T06:44:01.467Z,18.50
2023-09-09T06:49:02.741Z,18.39
2023-09-09T06:51:30.287Z,18.56
2023-09-09T06:53:58.145Z,18.95
2023-09-09T06:56:25.377Z,18.76
2023-09-09T06:58:52.638Z,18.90
2023-09-09T07:01:19.857Z,19.31
2023-09-09T07:03:47.180Z,18.81
2023-09-09T07:06:14.461Z,18.63
2023-09-09T07:08:42.088Z,18.97
2023-09-09T07:11:12.469Z,19.26
2023-09-09T07:13:39.867Z,19.48
2023-09-09T07:16:07.439Z,19.42
2023-09-09T07:18:34.741Z,19.78
2023-09-09T07:21:02.062Z,19.73
2023-09-09T07:23:29.389Z,19.99
2023-09-09T07:25:56.823Z,20.03
2023-09-09T07:28:26.915Z,19.94
2023-09-09T07:30:54.440Z,20.11
2023-09-09T07:33:21.757Z,20.13
2023-09-09T07:35:51.712Z,20.19
2023-09-09T07:38:19.220Z,20.40
2023-09-09T07:40:46.562Z,21.56
2023-09-09T07:43:15.473Z,22.89
2023-09-09T07:45:49.529Z,24.54
2023-09-09T07:48:17.440Z,25.72
2023-09-09T07:50:52.668Z,26.27
2023-09-09T07:53:22.015Z,26.55
2023-09-09T07:55:50.147Z,27.37
2023-09-09T07:58:19.172Z,28.33
2023-09-09T08:00:48.105Z,28.47
2023-09-09T08:03:15.535Z,28.54
2023-09-09T08:05:43.060Z,29.03
2023-09-09T08:08:11.460Z,29.14
2023-09-09T08:11:06.177Z,29.19
2023-09-09T08:13:33.805Z,29.48
2023-09-09T08:16:01.452Z,29.78
2023-09-09T08:18:29.076Z,30.08
2023-09-09T08:20:56.540Z,30.73
2023-09-09T08:23:24.098Z,31.13
2023-09-09T08:25:51.405Z,31.26
2023-09-09T08:28:19.880Z,30.17
2023-09-09T08:30:48.269Z,30.48
2023-09-09T08:33:15.639Z,30.45
2023-09-09T08:35:42.832Z,30.76
2023-09-09T08:38:10.384Z,31.27
2023-09-09T08:40:55.195Z,31.18
2023-09-09T08:43:46.401Z,30.29
2023-09-09T08:46:18.774Z,31.12
2023-09-09T08:48:52.023Z,31.65
2023-09-09T08:51:47.557Z,31.84
2023-09-09T08:54:16.785Z,31.79
2023-09-09T08:56:46.054Z,32.15
2023-09-09T08:59:15.084Z,31.99
2023-09-09T09:01:44.000Z,32.59
2023-09-09T09:04:14.877Z,31.98
2023-09-09T09:06:46.374Z,33.31
2023-09-09T09:09:13.595Z,32.48
2023-09-09T09:11:40.923Z,32.67
2023-09-09T09:14:09.429Z,32.98
2023-09-09T09:16:42.043Z,33.22
2023-09-09T09:19:19.302Z,33.24
2023-09-09T09:21:46.731Z,32.74
2023-09-09T09:24:15.043Z,32.03
2023-09-09T09:26:42.743Z,32.89
2023-09-09T09:29:09.979Z,33.05
2023-09-09T09:31:37.734Z,32.97
2023-09-09T09:34:05.025Z,32.74
2023-09-09T09:36:32.237Z,33.08
2023-09-09T09:39:02.474Z,33.14
2023-09-09T09:41:30.614Z,33.46
2023-09-09T09:43:57.856Z,33.49
2023-09-09T09:46:25.242Z,33.05
2023-09-09T09:48:52.739Z,33.60
2023-09-09T09:51:20.047Z,33.88
2023-09-09T09:53:50.271Z,33.73
2023-09-09T09:56:18.440Z,33.41
2023-09-09T09:58:47.943Z,33.15
2023-09-09T10:01:15.517Z,33.88
2023-09-09T10:03:59.213Z,32.32
2023-09-09T10:06:30.386Z,33.28
2023-09-09T10:09:27.014Z,34.04
2023-09-09T10:12:41.621Z,34.21
2023-09-09T10:15:16.992Z,34.24
2023-09-09T10:17:46.747Z,33.37
2023-09-09T10:20:15.926Z,33.91
2023-09-09T10:22:44.842Z,34.14
2023-09-09T10:25:13.687Z,33.42
2023-09-09T10:27:42.175Z,33.21
2023-09-09T10:30:10.801Z,33.69
2023-09-09T10:32:39.490Z,33.43
2023-09-09T10:35:08.325Z,33.27
2023-09-09T10:37:39.068Z,33.26
2023-09-09T10:40:08.521Z,34.04
2023-09-09T10:42:39.632Z,33.30
2023-09-09T10:45:34.078Z,33.24
2023-09-09T10:48:07.270Z,33.05
2023-09-09T10:50:54.694Z,33.24
2023-09-09T10:53:32.793Z,33.68
2023-09-09T10:56:22.799Z,33.39
2023-09-09T10:58:52.438Z,33.09
2023-09-09T11:01:29.377Z,33.24
2023-09-09T11:03:58.877Z,33.25
2023-09-09T11:06:33.127Z,33.29
2023-09-09T11:09:03.680Z,33.80
2023-09-09T11:11:38.446Z,33.88
2023-09-09T11:14:08.472Z,33.51
2023-09-09T11:16:37.594Z,33.76
2023-09-09T11:19:14.389Z,33.06
2023-09-09T11:21:47.372Z,33.58
2023-09-09T11:24:15.782Z,33.28
2023-09-09T11:26:46.493Z,34.10
2023-09-09T11:29:25.828Z,33.44
2023-09-09T11:32:02.207Z,33.63
2023-09-09T11:34:34.482Z,33.55
2023-09-09T11:37:04.317Z,33.57
2023-09-09T11:39:39.118Z,33.59
2023-09-09T11:42:06.448Z,33.67
2023-09-09T11:44:44.829Z,33.75
2023-09-09T11:47:12.741Z,33.74
2023-09-09T11:49:43.049Z,33.67
2023-09-09T11:52:10.496Z,34.08
2023-09-09T11:54:38.357Z,33.67
2023-09-09T11:57:09.770Z,33.89
2023-09-09T11:59:51.364Z,33.61
2023-09-09T12:02:25.095Z,33.61
2023-09-09T12:05:04.001Z,33.62
2023-09-09T12:07:37.708Z,33.53
2023-09-09T12:10:14.171Z,33.38
2023-09-09T12:12:43.108Z,33.32
2023-09-09T12:15:13.257Z,33.49
2023-09-09T12:17:41.125Z,33.66
2023-09-09T12:20:09.787Z,33.01
2023-09-09T12:22:51.169Z,33.68
2023-09-09T12:25:36.568Z,33.58
2023-09-09T12:28:04.950Z,32.51
2023-09-09T12:30:34.122Z,33.33
2023-09-09T12:33:13.214Z,33.42
2023-09-09T12:35:47.079Z,33.37
2023-09-09T12:38:18.495Z,33.20
2023-09-09T12:40:54.470Z,33.13
2023-09-09T12:43:26.529Z,33.11
2023-09-09T12:46:06.929Z,33.29
2023-09-09T12:49:00.114Z,33.59
2023-09-09T12:51:33.837Z,33.44
2023-09-09T12:54:02.070Z,33.04
2023-09-09T12:56:30.246Z,33.12
2023-09-09T12:58:57.497Z,33.07
2023-09-09T13:01:24.943Z,33.61
2023-09-09T13:03:52.158Z,33.35
2023-09-09T13:06:19.401Z,33.13
2023-09-09T13:08:46.613Z,33.27
2023-09-09T13:11:13.867Z,33.11
2023-09-09T13:13:41.320Z,33.08
2023-09-09T13:16:09.320Z,33.00
2023-09-09T13:18:36.702Z,33.21
2023-09-09T13:21:04.088Z,33.17
2023-09-09T13:23:31.473Z,33.20
2023-09-09T13:25:58.828Z,33.34
2023-09-09T13:28:26.124Z,33.60
2023-09-09T13:30:53.734Z,32.97
2023-09-09T13:33:21.037Z,32.61
2023-09-09T13:35:48.358Z,32.44
2023-09-09T13:38:15.641Z,33.25
2023-09-09T13:40:43.142Z,32.90
2023-09-09T13:43:10.563Z,33.13
2023-09-09T13:45:38.073Z,32.78
2023-09-09T13:48:06.100Z,32.81
2023-09-09T13:50:33.332Z,32.93
2023-09-09T13:53:00.624Z,32.58
2023-09-09T13:55:27.883Z,32.78
2023-09-09T13:57:55.265Z,32.73
2023-09-09T14:00:22.584Z,32.66
2023-09-09T14:02:50.449Z,32.97
2023-09-09T14:05:17.900Z,32.88
2023-09-09T14:07:45.376Z,32.73
2023-09-09T14:10:12.701Z,32.65
2023-09-09T14:12:42.728Z,32.57
2023-09-09T14:15:11.315Z,32.64
2023-09-09T14:17:38.697Z,32.44
2023-09-09T14:20:07.076Z,32.32
2023-09-09T14:22:34.303Z,32.23
2023-09-09T14:25:01.539Z,32.18
2023-09-09T14:27:28.945Z,31.96
2023-09-09T14:29:56.148Z,32.04
2023-09-09T14:32:26.457Z,31.90
2023-09-09T14:34:53.693Z,31.88
2023-09-09T14:37:21.014Z,32.01
2023-09-09T14:39:48.301Z,31.70
2023-09-09T14:42:15.533Z,31.87
2023-09-09T14:44:44.100Z,31.83
2023-09-09T14:47:11.641Z,31.83
2023-09-09T14:49:41.155Z,31.75
2023-09-09T14:52:09.406Z,31.47
2023-09-09T14:54:37.118Z,31.60
2023-09-09T14:57:04.800Z,31.62
2023-09-09T14:59:32.330Z,31.57
2023-09-09T15:01:59.714Z,31.45
2023-09-09T15:04:26.992Z,31.40
2023-09-09T15:06:54.225Z,31.35
2023-09-09T15:09:21.529Z,31.22
2023-09-09T15:11:48.795Z,31.32
2023-09-09T15:14:16.681Z,31.21
2023-09-09T15:16:49.025Z,31.34
2023-09-09T15:19:16.864Z,31.26
2023-09-09T15:21:44.265Z,31.24
2023-09-09T15:24:11.631Z,31.26
2023-09-09T15:26:39.341Z,31.20
2023-09-09T15:29:06.902Z,31.07
2023-09-09T15:31:35.336Z,30.96
2023-09-09T15:34:03.335Z,30.85
2023-09-09T15:36:30.629Z,30.94
2023-09-09T15:38:57.914Z,31.09
2023-09-09T15:41:25.137Z,31.14
2023-09-09T15:43:52.464Z,31.03
2023-09-09T15:46:19.842Z,30.92
2023-09-09T15:48:47.137Z,31.06
2023-09-09T15:51:14.385Z,30.85
2023-09-09T15:53:41.771Z,30.88
2023-09-09T15:56:12.968Z,30.90
2023-09-09T15:58:42.059Z,30.80
2023-09-09T16:01:09.756Z,30.65
2023-09-09T16:03:38.496Z,30.64
2023-09-09T16:06:09.057Z,30.60
2023-09-09T16:08:39.216Z,30.69
2023-09-09T16:11:06.963Z,30.65
2023-09-09T16:13:34.378Z,30.61
2023-09-09T16:16:09.856Z,30.59
2023-09-09T16:18:41.035Z,30.51
2023-09-09T16:21:08.923Z,30.43
2023-09-09T16:23:36.323Z,30.44
2023-09-09T16:26:05.419Z,30.42
2023-09-09T16:28:32.708Z,30.33
2023-09-09T16:31:05.524Z,30.27
2023-09-09T16:33:33.876Z,30.32
2023-09-09T16:36:06.018Z,30.16
2023-09-09T16:38:33.947Z,30.26
2023-09-09T16:41:01.201Z,30.14
2023-09-09T16:43:28.709Z,29.80
2023-09-09T16:45:56.618Z,29.60
2023-09-09T16:48:23.962Z,29.73
2023-09-09T16:50:51.544Z,29.80
2023-09-09T16:53:21.830Z,29.89
2023-09-09T16:55:49.928Z,29.74
2023-09-09T16:58:17.570Z,29.61
2023-09-09T17:00:45.200Z,29.50
2023-09-09T17:03:12.687Z,29.44
2023-09-09T17:05:46.920Z,29.29
2023-09-09T17:08:14.257Z,28.96
2023-09-09T17:10:42.870Z,28.72
2023-09-09T17:13:10.317Z,28.33
2023-09-09T17:15:39.596Z,28.19
2023-09-09T17:18:07.248Z,28.21
2023-09-09T17:20:34.567Z,28.28
2023-09-09T17:23:02.180Z,28.21
2023-09-09T17:25:31.150Z,28.19
2023-09-09T17:27:58.479Z,27.94
2023-09-09T17:30:28.060Z,27.60
2023-09-09T17:32:56.825Z,27.46
2023-09-09T17:35:27.399Z,27.25
2023-09-09T17:37:55.348Z,27.17
2023-09-09T17:43:04.875Z,26.96
2023-09-09T17:45:32.271Z,26.94
2023-09-09T17:48:00.226Z,26.83
2023-09-09T17:50:27.570Z,26.68
2023-09-09T17:52:54.854Z,26.55
2023-09-09T17:55:22.245Z,26.72
2023-09-09T17:57:49.485Z,26.60
2023-09-09T18:00:18.385Z,26.50
2023-09-09T18:02:47.647Z,26.44
2023-09-09T18:05:16.258Z,26.06
2023-09-09T18:07:44.079Z,26.00
2023-09-09T18:10:11.711Z,25.81
2023-09-09T18:12:39.493Z,25.78
2023-09-09T18:15:07.830Z,25.46
2023-09-09T18:17:35.255Z,25.41
2023-09-09T18:20:03.028Z,25.69
2023-09-09T18:22:31.600Z,25.51
2023-09-09T18:24:58.868Z,25.53
2023-09-09T18:27:26.112Z,25.58
2023-09-09T18:29:53.300Z,25.41
2023-09-09T18:32:20.480Z,25.21
2023-09-09T18:34:47.679Z,25.07
2023-09-09T18:37:15.718Z,25.01
2023-09-09T18:39:42.924Z,24.85
2023-09-09T18:42:10.106Z,24.97
2023-09-09T18:44:37.714Z,24.97
2023-09-09T18:47:05.118Z,24.68
2023-09-09T18:49:33.408Z,24.69
2023-09-09T18:52:00.713Z,24.75
2023-09-09T18:54:27.974Z,24.83
2023-09-09T18:56:55.176Z,24.46
2023-09-09T18:59:22.455Z,24.38
2023-09-09T19:01:52.449Z,24.13
2023-09-09T19:04:20.775Z,24.10
2023-09-09T19:06:48.335Z,24.27
2023-09-09T19:09:16.407Z,23.99
2023-09-09T19:11:43.691Z,23.82
2023-09-09T19:14:10.994Z,23.60
2023-09-09T19:16:39.158Z,23.31
2023-09-09T19:19:06.512Z,22.92
2023-09-09T19:21:33.768Z,23.39
2023-09-09T19:24:02.037Z,23.39
2023-09-09T19:26:29.297Z,23.61
2023-09-09T19:28:57.056Z,23.62
2023-09-09T19:31:24.562Z,23.62
2023-09-09T19:33:52.200Z,23.44
2023-09-09T19:36:19.387Z,23.40
2023-09-09T19:38:46.592Z,23.42
2023-09-09T19:41:13.780Z,23.31
2023-09-09T19:43:41.645Z,23.72
2023-09-09T19:46:10.325Z,23.54
2023-09-09T19:48:37.786Z,22.69
2023-09-09T19:51:05.157Z,23.04
2023-09-09T19:53:32.411Z,23.43
2023-09-09T19:55:59.749Z,23.52
2023-09-09T19:58:28.511Z,23.30
2023-09-09T20:00:55.904Z,23.10
2023-09-09T20:03:23.792Z,22.73
2023-09-09T20:05:51.248Z,22.58
2023-09-09T20:08:18.452Z,22.98
2023-09-09T20:10:45.916Z,22.94
2023-09-09T20:13:13.187Z,22.86
2023-09-09T20:15:40.479Z,22.43
2023-09-09T20:18:09.331Z,22.71
2023-09-09T20:20:40.116Z,22.69
2023-09-09T20:23:07.419Z,22.82
2023-09-09T20:25:34.720Z,22.83
2023-09-09T20:28:02.109Z,22.78
2023-09-09T20:30:31.149Z,22.67
2023-09-09T20:32:58.876Z,22.28
2023-09-09T20:35:34.761Z,21.66
2023-09-09T20:38:04.308Z,21.29
2023-09-09T20:40:31.695Z,22.18
2023-09-09T20:43:02.066Z,22.29
2023-09-09T20:45:30.547Z,22.44
2023-09-09T20:47:58.124Z,22.13
2023-09-09T20:50:28.178Z,22.19
2023-09-09T20:52:55.862Z,22.47
2023-09-09T20:55:23.823Z,22.30
2023-09-09T20:57:51.634Z,22.01
2023-09-09T21:00:19.982Z,22.19
2023-09-09T21:02:52.030Z,22.18
2023-09-09T21:05:21.567Z,21.71
2023-09-09T21:07:50.039Z,21.99
2023-09-09T21:10:19.118Z,21.75
2023-09-09T21:12:48.771Z,21.76
2023-09-09T21:15:18.231Z,21.62
2023-09-09T21:17:46.677Z,21.87
2023-09-09T21:20:14.388Z,22.04
2023-09-09T21:22:41.748Z,21.52
2023-09-09T21:25:12.567Z,21.57
2023-09-09T21:27:39.821Z,21.87
2023-09-09T21:30:07.768Z,21.73
2023-09-09T21:32:35.129Z,21.66
2023-09-09T21:35:02.676Z,21.62
2023-09-09T21:37:30.014Z,21.49
2023-09-09T21:39:57.253Z,21.50
2023-09-09T21:42:24.501Z,21.62
2023-09-09T21:44:51.716Z,21.34
2023-09-09T21:47:18.979Z,20.96
2023-09-09T21:49:46.235Z,21.16
2023-09-09T21:52:13.469Z,21.35
2023-09-09T21:54:40.743Z,21.38
2023-09-09T21:57:08.190Z,21.55
2023-09-09T21:59:35.509Z,21.47
2023-09-09T22:02:02.878Z,21.31
2023-09-09T22:04:30.952Z,21.20
2023-09-09T22:07:02.901Z,20.85
2023-09-09T22:09:34.077Z,21.15
2023-09-09T22:12:01.421Z,21.31
2023-09-09T22:14:28.784Z,21.41
2023-09-09T22:17:01.472Z,21.57
2023-09-09T22:19:29.085Z,21.54
2023-09-09T22:21:56.424Z,21.32
2023-09-09T22:24:23.708Z,21.00
2023-09-09T22:26:50.925Z,21.22
2023-09-09T22:29:18.157Z,21.09
2023-09-09T22:31:45.493Z,21.02
2023-09-09T22:34:12.745Z,21.06
2023-09-09T22:36:39.993Z,21.35
2023-09-09T22:39:07.154Z,21.26
2023-09-09T22:41:34.364Z,21.10
2023-09-09T22:44:01.663Z,21.19
2023-09-09T22:46:29.079Z,21.25
2023-09-09T22:48:56.328Z,21.18
2023-09-09T22:51:25.834Z,21.19
2023-09-09T22:53:53.446Z,21.12
2023-09-09T22:56:21.165Z,21.21
2023-09-09T22:58:48.419Z,21.05
2023-09-09T23:01:17.891Z,20.89
2023-09-09T23:03:45.411Z,21.08
2023-09-09T23:06:12.938Z,20.68
2023-09-09T23:08:40.389Z,20.66
2023-09-09T23:11:14.055Z,20.73
2023-09-09T23:13:42.871Z,20.92
2023-09-09T23:16:10.506Z,20.73
2023-09-09T23:18:39.729Z,20.68
2023-09-09T23:21:07.258Z,20.59
2023-09-09T23:23:34.699Z,20.58
2023-09-09T23:26:02.999Z,20.54
2023-09-09T23:28:30.677Z,20.64
2023-09-09T23:31:03.099Z,20.65
2023-09-09T23:33:32.449Z,20.70
2023-09-09T23:36:09.078Z,20.40
2023-09-09T23:38:36.541Z,20.53
2023-09-09T23:41:04.090Z,20.30
2023-09-09T23:43:31.353Z,20.17
2023-09-09T23:45:58.579Z,20.07
2023-09-09T23:48:25.874Z,20.22
2023-09-09T23:50:53.079Z,20.09
2023-09-09T23:53:20.284Z,19.71
2023-09-09T23:55:47.584Z,20.01
2023-09-09T23:58:15.138Z,20.10
